sensor_id;sensor_type;location;lat;lon;timestamp;P1;durP1;ratioP1;P2;durP2;ratioP2
17133;SDS011;8682;52.120;5.252;2022-08-02T00:02:26;142.37;;;87.83;;
17133;SDS011;8682;52.120;5.252;2022-08-02T00:04:53;163.80;;;101.70;;
17133;SDS011;8682;52.120;5.252;2022-08-02T00:07:21;157.27;;;105.60;;
17133;SDS011;8682;52.120;5.252;2022-08-02T00:09:48;171.50;;;118.50;;
17133;SDS011;8682;52.120;5.252;2022-08-02T00:12:16;172.53;;;112.80;;
17133;SDS011;8682;52.120;5.252;2022-08-02T00:14:44;219.63;;;121.50;;
17133;SDS011;8682;52.120;5.252;2022-08-02T00:17:11;210.73;;;105.10;;
17133;SDS011;8682;52.120;5.252;2022-08-02T00:19:38;177.93;;;107.00;;
17133;SDS011;8682;52.120;5.252;2022-08-02T00:22:05;194.80;;;116.43;;
17133;SDS011;8682;52.120;5.252;2022-08-02T00:24:32;196.03;;;114.30;;
17133;SDS011;8682;52.120;5.252;2022-08-02T00:26:59;225.83;;;128.87;;
17133;SDS011;8682;52.120;5.252;2022-08-02T00:29:29;204.97;;;137.50;;
17133;SDS011;8682;52.120;5.252;2022-08-02T00:31:56;212.77;;;118.77;;
17133;SDS011;8682;52.120;5.252;2022-08-02T00:34:23;202.43;;;114.47;;
17133;SDS011;8682;52.120;5.252;2022-08-02T00:36:50;266.50;;;134.20;;
17133;SDS011;8682;52.120;5.252;2022-08-02T00:39:18;235.37;;;125.67;;
17133;SDS011;8682;52.120;5.252;2022-08-02T00:41:45;218.13;;;118.10;;
17133;SDS011;8682;52.120;5.252;2022-08-02T00:44:13;194.97;;;103.30;;
17133;SDS011;8682;52.120;5.252;2022-08-02T00:46:41;196.23;;;106.07;;
17133;SDS011;8682;52.120;5.252;2022-08-02T00:49:09;214.23;;;109.47;;
17133;SDS011;8682;52.120;5.252;2022-08-02T00:51:37;189.37;;;104.73;;
17133;SDS011;8682;52.120;5.252;2022-08-02T00:54:04;165.57;;;94.47;;
17133;SDS011;8682;52.120;5.252;2022-08-02T00:56:31;178.13;;;108.60;;
17133;SDS011;8682;52.120;5.252;2022-08-02T00:58:59;171.50;;;108.37;;
17133;SDS011;8682;52.120;5.252;2022-08-02T01:01:26;195.20;;;123.60;;
17133;SDS011;8682;52.120;5.252;2022-08-02T01:04:05;228.37;;;126.00;;
17133;SDS011;8682;52.120;5.252;2022-08-02T01:06:32;181.63;;;115.60;;
17133;SDS011;8682;52.120;5.252;2022-08-02T01:08:59;198.33;;;104.53;;
17133;SDS011;8682;52.120;5.252;2022-08-02T01:11:27;177.43;;;107.70;;
17133;SDS011;8682;52.120;5.252;2022-08-02T01:13:55;189.80;;;107.77;;
17133;SDS011;8682;52.120;5.252;2022-08-02T01:16:22;176.87;;;101.07;;
17133;SDS011;8682;52.120;5.252;2022-08-02T01:18:53;170.73;;;98.80;;
17133;SDS011;8682;52.120;5.252;2022-08-02T01:21:45;195.03;;;102.87;;
17133;SDS011;8682;52.120;5.252;2022-08-02T01:24:20;213.37;;;119.80;;
17133;SDS011;8682;52.120;5.252;2022-08-02T01:26:49;195.43;;;106.73;;
17133;SDS011;8682;52.120;5.252;2022-08-02T01:29:21;201.30;;;105.03;;
17133;SDS011;8682;52.120;5.252;2022-08-02T01:31:53;200.80;;;109.67;;
17133;SDS011;8682;52.120;5.252;2022-08-02T01:34:23;197.23;;;109.83;;
17133;SDS011;8682;52.120;5.252;2022-08-02T01:36:56;219.80;;;103.97;;
17133;SDS011;8682;52.120;5.252;2022-08-02T01:39:25;186.30;;;103.53;;
17133;SDS011;8682;52.120;5.252;2022-08-02T01:41:53;211.60;;;102.90;;
17133;SDS011;8682;52.120;5.252;2022-08-02T01:44:24;223.23;;;113.60;;
17133;SDS011;8682;52.120;5.252;2022-08-02T01:46:52;188.87;;;114.40;;
17133;SDS011;8682;52.120;5.252;2022-08-02T01:49:22;249.67;;;134.27;;
17133;SDS011;8682;52.120;5.252;2022-08-02T01:51:50;209.83;;;112.90;;
17133;SDS011;8682;52.120;5.252;2022-08-02T01:54:35;203.63;;;117.77;;
17133;SDS011;8682;52.120;5.252;2022-08-02T01:57:04;189.50;;;111.90;;
17133;SDS011;8682;52.120;5.252;2022-08-02T01:59:33;212.53;;;111.40;;
17133;SDS011;8682;52.120;5.252;2022-08-02T02:02:01;207.50;;;111.17;;
17133;SDS011;8682;52.120;5.252;2022-08-02T02:04:29;199.03;;;103.87;;
17133;SDS011;8682;52.120;5.252;2022-08-02T02:06:56;179.53;;;104.97;;
17133;SDS011;8682;52.120;5.252;2022-08-02T02:09:25;164.93;;;96.73;;
17133;SDS011;8682;52.120;5.252;2022-08-02T02:11:53;183.90;;;112.97;;
17133;SDS011;8682;52.120;5.252;2022-08-02T02:14:22;155.73;;;109.17;;
17133;SDS011;8682;52.120;5.252;2022-08-02T02:16:51;160.30;;;95.63;;
17133;SDS011;8682;52.120;5.252;2022-08-02T02:19:19;188.60;;;106.87;;
17133;SDS011;8682;52.120;5.252;2022-08-02T02:21:46;146.17;;;99.87;;
17133;SDS011;8682;52.120;5.252;2022-08-02T02:24:13;162.67;;;107.40;;
17133;SDS011;8682;52.120;5.252;2022-08-02T02:26:40;177.63;;;105.77;;
17133;SDS011;8682;52.120;5.252;2022-08-02T02:29:09;187.17;;;114.47;;
17133;SDS011;8682;52.120;5.252;2022-08-02T02:31:37;167.40;;;112.73;;
17133;SDS011;8682;52.120;5.252;2022-08-02T02:34:07;175.57;;;109.07;;
17133;SDS011;8682;52.120;5.252;2022-08-02T02:36:35;187.87;;;118.17;;
17133;SDS011;8682;52.120;5.252;2022-08-02T02:39:03;176.70;;;114.23;;
17133;SDS011;8682;52.120;5.252;2022-08-02T02:41:31;201.53;;;122.23;;
17133;SDS011;8682;52.120;5.252;2022-08-02T02:44:00;166.97;;;126.77;;
17133;SDS011;8682;52.120;5.252;2022-08-02T02:46:28;178.40;;;124.17;;
17133;SDS011;8682;52.120;5.252;2022-08-02T02:48:55;171.97;;;117.73;;
17133;SDS011;8682;52.120;5.252;2022-08-02T02:51:24;178.40;;;116.37;;
17133;SDS011;8682;52.120;5.252;2022-08-02T02:53:51;228.40;;;158.03;;
17133;SDS011;8682;52.120;5.252;2022-08-02T02:56:19;285.83;;;198.80;;
17133;SDS011;8682;52.120;5.252;2022-08-02T02:58:46;222.40;;;146.53;;
17133;SDS011;8682;52.120;5.252;2022-08-02T03:01:14;228.03;;;152.30;;
17133;SDS011;8682;52.120;5.252;2022-08-02T03:03:55;401.27;;;318.30;;
17133;SDS011;8682;52.120;5.252;2022-08-02T03:06:22;221.17;;;173.13;;
17133;SDS011;8682;52.120;5.252;2022-08-02T03:08:51;211.57;;;138.27;;
17133;SDS011;8682;52.120;5.252;2022-08-02T03:11:19;191.67;;;141.97;;
17133;SDS011;8682;52.120;5.252;2022-08-02T03:13:46;229.03;;;187.33;;
17133;SDS011;8682;52.120;5.252;2022-08-02T03:16:13;275.43;;;218.17;;
17133;SDS011;8682;52.120;5.252;2022-08-02T03:18:42;274.47;;;210.67;;
17133;SDS011;8682;52.120;5.252;2022-08-02T03:21:10;220.57;;;188.53;;
17133;SDS011;8682;52.120;5.252;2022-08-02T03:23:37;344.27;;;296.20;;
17133;SDS011;8682;52.120;5.252;2022-08-02T03:26:06;234.80;;;185.70;;
17133;SDS011;8682;52.120;5.252;2022-08-02T03:28:33;226.87;;;154.00;;
17133;SDS011;8682;52.120;5.252;2022-08-02T03:31:00;288.33;;;256.70;;
17133;SDS011;8682;52.120;5.252;2022-08-02T03:33:27;281.27;;;236.63;;
17133;SDS011;8682;52.120;5.252;2022-08-02T03:35:56;258.47;;;228.57;;
17133;SDS011;8682;52.120;5.252;2022-08-02T03:38:24;330.53;;;280.50;;
17133;SDS011;8682;52.120;5.252;2022-08-02T03:40:52;328.10;;;241.90;;
17133;SDS011;8682;52.120;5.252;2022-08-02T03:43:23;328.10;;;276.97;;
17133;SDS011;8682;52.120;5.252;2022-08-02T03:45:50;464.77;;;416.77;;
17133;SDS011;8682;52.120;5.252;2022-08-02T03:48:17;414.83;;;328.23;;
17133;SDS011;8682;52.120;5.252;2022-08-02T03:50:45;405.93;;;360.37;;
17133;SDS011;8682;52.120;5.252;2022-08-02T03:53:13;367.43;;;306.63;;
17133;SDS011;8682;52.120;5.252;2022-08-02T03:55:40;453.47;;;400.17;;
17133;SDS011;8682;52.120;5.252;2022-08-02T03:58:07;415.90;;;315.20;;
17133;SDS011;8682;52.120;5.252;2022-08-02T04:00:36;451.87;;;399.73;;
17133;SDS011;8682;52.120;5.252;2022-08-02T04:03:03;624.13;;;495.53;;
17133;SDS011;8682;52.120;5.252;2022-08-02T04:05:31;648.83;;;568.87;;
17133;SDS011;8682;52.120;5.252;2022-08-02T04:07:58;770.40;;;610.73;;
17133;SDS011;8682;52.120;5.252;2022-08-02T04:10:25;15.82;;;14.93;;
17133;SDS011;8682;52.120;5.252;2022-08-02T04:12:52;235.27;;;125.70;;
17133;SDS011;8682;52.120;5.252;2022-08-02T04:15:19;297.70;;;230.03;;
17133;SDS011;8682;52.120;5.252;2022-08-02T04:17:48;397.10;;;337.27;;
17133;SDS011;8682;52.120;5.252;2022-08-02T04:20:16;403.97;;;335.90;;
17133;SDS011;8682;52.120;5.252;2022-08-02T04:22:45;486.37;;;411.30;;
17133;SDS011;8682;52.120;5.252;2022-08-02T04:25:13;347.33;;;248.47;;
17133;SDS011;8682;52.120;5.252;2022-08-02T04:27:41;300.93;;;256.30;;
17133;SDS011;8682;52.120;5.252;2022-08-02T04:30:09;384.90;;;318.60;;
17133;SDS011;8682;52.120;5.252;2022-08-02T04:32:36;353.27;;;301.17;;
17133;SDS011;8682;52.120;5.252;2022-08-02T04:35:06;311.10;;;235.73;;
17133;SDS011;8682;52.120;5.252;2022-08-02T04:37:33;271.47;;;203.03;;
17133;SDS011;8682;52.120;5.252;2022-08-02T04:40:00;239.77;;;170.03;;
17133;SDS011;8682;52.120;5.252;2022-08-02T04:42:27;259.47;;;142.07;;
17133;SDS011;8682;52.120;5.252;2022-08-02T04:44:55;205.70;;;129.13;;
17133;SDS011;8682;52.120;5.252;2022-08-02T04:47:23;191.10;;;113.30;;
17133;SDS011;8682;52.120;5.252;2022-08-02T04:49:50;174.10;;;109.27;;
17133;SDS011;8682;52.120;5.252;2022-08-02T04:52:18;168.23;;;103.03;;
17133;SDS011;8682;52.120;5.252;2022-08-02T04:54:45;169.90;;;86.47;;
17133;SDS011;8682;52.120;5.252;2022-08-02T04:57:12;157.47;;;86.10;;
17133;SDS011;8682;52.120;5.252;2022-08-02T04:59:57;157.40;;;110.50;;
17133;SDS011;8682;52.120;5.252;2022-08-02T05:02:24;160.10;;;100.37;;
17133;SDS011;8682;52.120;5.252;2022-08-02T05:04:51;178.03;;;110.43;;
17133;SDS011;8682;52.120;5.252;2022-08-02T05:07:20;147.70;;;100.50;;
17133;SDS011;8682;52.120;5.252;2022-08-02T05:09:47;148.90;;;99.53;;
17133;SDS011;8682;52.120;5.252;2022-08-02T05:12:14;167.87;;;105.13;;
17133;SDS011;8682;52.120;5.252;2022-08-02T05:14:41;198.03;;;101.07;;
17133;SDS011;8682;52.120;5.252;2022-08-02T05:17:08;179.80;;;103.60;;
17133;SDS011;8682;52.120;5.252;2022-08-02T05:19:36;200.07;;;103.50;;
17133;SDS011;8682;52.120;5.252;2022-08-02T05:22:03;219.37;;;120.37;;
17133;SDS011;8682;52.120;5.252;2022-08-02T05:24:31;180.60;;;116.10;;
17133;SDS011;8682;52.120;5.252;2022-08-02T05:26:58;239.97;;;174.67;;
17133;SDS011;8682;52.120;5.252;2022-08-02T05:29:25;242.83;;;149.70;;
17133;SDS011;8682;52.120;5.252;2022-08-02T05:31:52;247.70;;;163.77;;
17133;SDS011;8682;52.120;5.252;2022-08-02T05:34:20;221.83;;;162.93;;
17133;SDS011;8682;52.120;5.252;2022-08-02T05:36:47;280.07;;;174.37;;
17133;SDS011;8682;52.120;5.252;2022-08-02T05:39:14;243.27;;;143.07;;
17133;SDS011;8682;52.120;5.252;2022-08-02T05:41:42;205.60;;;149.90;;
17133;SDS011;8682;52.120;5.252;2022-08-02T05:44:09;276.83;;;189.03;;
17133;SDS011;8682;52.120;5.252;2022-08-02T05:46:36;258.23;;;167.10;;
17133;SDS011;8682;52.120;5.252;2022-08-02T05:49:04;277.97;;;197.77;;
17133;SDS011;8682;52.120;5.252;2022-08-02T05:51:34;330.03;;;287.47;;
17133;SDS011;8682;52.120;5.252;2022-08-02T05:54:05;929.63;;;765.23;;
17133;SDS011;8682;52.120;5.252;2022-08-02T05:56:36;977.90;;;793.90;;
17133;SDS011;8682;52.120;5.252;2022-08-02T05:59:08;1665.83;;;999.90;;
17133;SDS011;8682;52.120;5.252;2022-08-02T06:01:38;1999.90;;;999.90;;
17133;SDS011;8682;52.120;5.252;2022-08-02T06:04:07;1999.90;;;999.90;;
17133;SDS011;8682;52.120;5.252;2022-08-02T06:06:34;1999.90;;;999.90;;
17133;SDS011;8682;52.120;5.252;2022-08-02T06:09:03;1121.83;;;898.10;;
17133;SDS011;8682;52.120;5.252;2022-08-02T06:11:33;1999.90;;;999.90;;
17133;SDS011;8682;52.120;5.252;2022-08-02T06:14:01;1999.90;;;999.90;;
17133;SDS011;8682;52.120;5.252;2022-08-02T06:16:30;1999.90;;;999.90;;
17133;SDS011;8682;52.120;5.252;2022-08-02T06:18:57;1999.90;;;999.90;;
17133;SDS011;8682;52.120;5.252;2022-08-02T06:21:24;1999.90;;;999.90;;
17133;SDS011;8682;52.120;5.252;2022-08-02T06:23:52;1999.90;;;999.90;;
17133;SDS011;8682;52.120;5.252;2022-08-02T06:26:19;1999.90;;;999.90;;
17133;SDS011;8682;52.120;5.252;2022-08-02T06:28:46;1999.90;;;999.90;;
17133;SDS011;8682;52.120;5.252;2022-08-02T06:31:14;1999.90;;;999.90;;
17133;SDS011;8682;52.120;5.252;2022-08-02T06:33:42;1999.85;;;999.90;;
17133;SDS011;8682;52.120;5.252;2022-08-02T06:36:14;1999.90;;;999.90;;
17133;SDS011;8682;52.120;5.252;2022-08-02T06:38:42;1999.90;;;999.90;;
17133;SDS011;8682;52.120;5.252;2022-08-02T06:41:12;1999.90;;;999.90;;
17133;SDS011;8682;52.120;5.252;2022-08-02T06:43:43;1999.90;;;999.90;;
17133;SDS011;8682;52.120;5.252;2022-08-02T06:46:12;1999.90;;;999.90;;
17133;SDS011;8682;52.120;5.252;2022-08-02T06:48:39;1999.90;;;999.90;;
17133;SDS011;8682;52.120;5.252;2022-08-02T06:51:08;1999.90;;;999.90;;
17133;SDS011;8682;52.120;5.252;2022-08-02T06:53:35;1999.90;;;999.90;;
17133;SDS011;8682;52.120;5.252;2022-08-02T06:56:02;1999.90;;;999.90;;
17133;SDS011;8682;52.120;5.252;2022-08-02T06:58:30;1999.90;;;999.90;;
17133;SDS011;8682;52.120;5.252;2022-08-02T07:00:57;1999.90;;;999.90;;
17133;SDS011;8682;52.120;5.252;2022-08-02T07:03:24;1999.90;;;999.90;;
17133;SDS011;8682;52.120;5.252;2022-08-02T07:05:52;1999.90;;;999.90;;
17133;SDS011;8682;52.120;5.252;2022-08-02T07:08:20;1999.90;;;999.90;;
17133;SDS011;8682;52.120;5.252;2022-08-02T07:10:47;1987.53;;;999.90;;
17133;SDS011;8682;52.120;5.252;2022-08-02T07:13:15;1999.90;;;999.90;;
17133;SDS011;8682;52.120;5.252;2022-08-02T07:15:42;1999.90;;;999.90;;
17133;SDS011;8682;52.120;5.252;2022-08-02T07:18:09;1999.90;;;999.90;;
17133;SDS011;8682;52.120;5.252;2022-08-02T07:20:39;1999.90;;;999.90;;
17133;SDS011;8682;52.120;5.252;2022-08-02T07:23:06;1999.90;;;999.90;;
17133;SDS011;8682;52.120;5.252;2022-08-02T07:25:35;1999.90;;;999.90;;
17133;SDS011;8682;52.120;5.252;2022-08-02T07:28:02;1999.90;;;999.90;;
17133;SDS011;8682;52.120;5.252;2022-08-02T07:30:30;1999.90;;;999.90;;
17133;SDS011;8682;52.120;5.252;2022-08-02T07:32:57;1999.90;;;999.90;;
17133;SDS011;8682;52.120;5.252;2022-08-02T07:35:24;1999.90;;;999.90;;
17133;SDS011;8682;52.120;5.252;2022-08-02T07:37:51;1999.90;;;999.90;;
17133;SDS011;8682;52.120;5.252;2022-08-02T07:40:19;1999.90;;;999.90;;
17133;SDS011;8682;52.120;5.252;2022-08-02T07:42:48;1999.90;;;999.90;;
17133;SDS011;8682;52.120;5.252;2022-08-02T07:45:17;1999.90;;;999.90;;
17133;SDS011;8682;52.120;5.252;2022-08-02T07:47:44;1999.90;;;999.90;;
17133;SDS011;8682;52.120;5.252;2022-08-02T07:50:12;1999.90;;;999.90;;
17133;SDS011;8682;52.120;5.252;2022-08-02T07:52:39;1999.90;;;999.90;;
17133;SDS011;8682;52.120;5.252;2022-08-02T07:55:07;1999.90;;;999.90;;
17133;SDS011;8682;52.120;5.252;2022-08-02T07:57:34;1999.90;;;999.90;;
17133;SDS011;8682;52.120;5.252;2022-08-02T08:00:04;1999.90;;;999.90;;
17133;SDS011;8682;52.120;5.252;2022-08-02T08:02:32;1999.90;;;991.90;;
17133;SDS011;8682;52.120;5.252;2022-08-02T08:04:59;1999.90;;;999.90;;
17133;SDS011;8682;52.120;5.252;2022-08-02T08:07:26;1999.90;;;999.90;;
17133;SDS011;8682;52.120;5.252;2022-08-02T08:09:53;1999.90;;;999.90;;
17133;SDS011;8682;52.120;5.252;2022-08-02T08:12:21;1999.90;;;999.90;;
17133;SDS011;8682;52.120;5.252;2022-08-02T08:14:48;1999.90;;;999.90;;
17133;SDS011;8682;52.120;5.252;2022-08-02T08:17:17;1999.90;;;999.90;;
17133;SDS011;8682;52.120;5.252;2022-08-02T08:19:44;1999.90;;;999.90;;
17133;SDS011;8682;52.120;5.252;2022-08-02T08:22:11;1999.90;;;999.90;;
17133;SDS011;8682;52.120;5.252;2022-08-02T08:24:38;1999.90;;;999.90;;
17133;SDS011;8682;52.120;5.252;2022-08-02T08:27:05;1999.90;;;999.90;;
17133;SDS011;8682;52.120;5.252;2022-08-02T08:29:38;1999.90;;;999.90;;
17133;SDS011;8682;52.120;5.252;2022-08-02T08:32:05;1999.90;;;999.90;;
17133;SDS011;8682;52.120;5.252;2022-08-02T08:34:34;1999.90;;;999.90;;
17133;SDS011;8682;52.120;5.252;2022-08-02T08:37:01;1999.90;;;999.90;;
17133;SDS011;8682;52.120;5.252;2022-08-02T08:39:29;1999.90;;;999.90;;
17133;SDS011;8682;52.120;5.252;2022-08-02T08:41:56;1999.90;;;999.90;;
17133;SDS011;8682;52.120;5.252;2022-08-02T08:44:23;1999.90;;;999.90;;
17133;SDS011;8682;52.120;5.252;2022-08-02T08:46:52;1999.90;;;999.90;;
17133;SDS011;8682;52.120;5.252;2022-08-02T08:49:22;1999.90;;;999.90;;
17133;SDS011;8682;52.120;5.252;2022-08-02T08:51:54;1999.90;;;999.90;;
17133;SDS011;8682;52.120;5.252;2022-08-02T08:54:22;1999.90;;;999.90;;
17133;SDS011;8682;52.120;5.252;2022-08-02T08:56:50;1999.90;;;999.90;;
17133;SDS011;8682;52.120;5.252;2022-08-02T08:59:17;1999.90;;;999.90;;
17133;SDS011;8682;52.120;5.252;2022-08-02T09:01:44;1999.90;;;999.90;;
17133;SDS011;8682;52.120;5.252;2022-08-02T09:04:12;1999.90;;;999.90;;
17133;SDS011;8682;52.120;5.252;2022-08-02T09:06:39;1999.90;;;999.90;;
17133;SDS011;8682;52.120;5.252;2022-08-02T09:09:08;1999.90;;;999.90;;
17133;SDS011;8682;52.120;5.252;2022-08-02T09:11:35;1999.90;;;999.90;;
17133;SDS011;8682;52.120;5.252;2022-08-02T09:14:02;1985.00;;;999.90;;
17133;SDS011;8682;52.120;5.252;2022-08-02T09:16:31;1999.90;;;999.90;;
17133;SDS011;8682;52.120;5.252;2022-08-02T09:18:59;1903.47;;;996.60;;
17133;SDS011;8682;52.120;5.252;2022-08-02T09:21:33;1907.13;;;996.80;;
17133;SDS011;8682;52.120;5.252;2022-08-02T09:24:00;1505.40;;;841.78;;
17133;SDS011;8682;52.120;5.252;2022-08-02T09:26:29;1762.40;;;947.45;;
17133;SDS011;8682;52.120;5.252;2022-08-02T09:28:59;1694.13;;;965.17;;
17133;SDS011;8682;52.120;5.252;2022-08-02T09:31:27;1896.38;;;990.05;;
17133;SDS011;8682;52.120;5.252;2022-08-02T09:33:54;1477.18;;;906.55;;
17133;SDS011;8682;52.120;5.252;2022-08-02T09:36:22;1359.22;;;847.13;;
17133;SDS011;8682;52.120;5.252;2022-08-02T09:38:54;1999.90;;;999.90;;
17133;SDS011;8682;52.120;5.252;2022-08-02T09:41:22;1999.90;;;999.90;;
17133;SDS011;8682;52.120;5.252;2022-08-02T09:43:51;1999.90;;;999.90;;
17133;SDS011;8682;52.120;5.252;2022-08-02T09:46:19;1999.90;;;999.90;;
17133;SDS011;8682;52.120;5.252;2022-08-02T09:48:50;1999.90;;;999.90;;
17133;SDS011;8682;52.120;5.252;2022-08-02T09:51:18;1999.90;;;999.90;;
17133;SDS011;8682;52.120;5.252;2022-08-02T09:53:46;1999.90;;;999.90;;
17133;SDS011;8682;52.120;5.252;2022-08-02T09:56:14;1999.90;;;999.90;;
17133;SDS011;8682;52.120;5.252;2022-08-02T09:58:42;1999.90;;;999.90;;
17133;SDS011;8682;52.120;5.252;2022-08-02T10:01:10;1999.90;;;999.90;;
17133;SDS011;8682;52.120;5.252;2022-08-02T10:03:43;1999.90;;;999.90;;
17133;SDS011;8682;52.120;5.252;2022-08-02T10:06:18;1999.90;;;999.90;;
17133;SDS011;8682;52.120;5.252;2022-08-02T10:08:46;1999.90;;;999.90;;
17133;SDS011;8682;52.120;5.252;2022-08-02T10:11:13;1999.90;;;999.90;;
17133;SDS011;8682;52.120;5.252;2022-08-02T10:13:40;1999.90;;;999.90;;
17133;SDS011;8682;52.120;5.252;2022-08-02T10:16:08;1999.90;;;999.90;;
17133;SDS011;8682;52.120;5.252;2022-08-02T10:18:37;1999.90;;;999.90;;
17133;SDS011;8682;52.120;5.252;2022-08-02T10:21:05;1999.90;;;999.90;;
17133;SDS011;8682;52.120;5.252;2022-08-02T10:23:33;1999.90;;;999.90;;
17133;SDS011;8682;52.120;5.252;2022-08-02T10:26:00;1999.90;;;999.90;;
17133;SDS011;8682;52.120;5.252;2022-08-02T10:28:28;1999.90;;;999.90;;
17133;SDS011;8682;52.120;5.252;2022-08-02T10:30:56;1999.90;;;999.90;;
17133;SDS011;8682;52.120;5.252;2022-08-02T10:33:23;1999.90;;;999.90;;
17133;SDS011;8682;52.120;5.252;2022-08-02T10:35:53;1999.90;;;999.90;;
17133;SDS011;8682;52.120;5.252;2022-08-02T10:38:22;1999.90;;;999.90;;
17133;SDS011;8682;52.120;5.252;2022-08-02T10:40:50;1999.90;;;999.90;;
17133;SDS011;8682;52.120;5.252;2022-08-02T10:51:24;1955.78;;;999.90;;
17133;SDS011;8682;52.120;5.252;2022-08-02T10:54:16;1999.90;;;999.90;;
17133;SDS011;8682;52.120;5.252;2022-08-02T10:56:45;1999.90;;;999.90;;
17133;SDS011;8682;52.120;5.252;2022-08-02T10:59:25;1999.90;;;999.90;;
17133;SDS011;8682;52.120;5.252;2022-08-02T11:01:52;1999.90;;;999.90;;
17133;SDS011;8682;52.120;5.252;2022-08-02T11:04:27;1999.90;;;999.90;;
17133;SDS011;8682;52.120;5.252;2022-08-02T11:07:11;1999.90;;;999.90;;
17133;SDS011;8682;52.120;5.252;2022-08-02T11:09:39;1999.90;;;999.90;;
17133;SDS011;8682;52.120;5.252;2022-08-02T11:12:07;1999.90;;;999.90;;
17133;SDS011;8682;52.120;5.252;2022-08-02T11:14:35;1999.90;;;999.90;;
17133;SDS011;8682;52.120;5.252;2022-08-02T11:17:10;1999.90;;;999.90;;
17133;SDS011;8682;52.120;5.252;2022-08-02T11:22:24;1999.90;;;999.90;;
17133;SDS011;8682;52.120;5.252;2022-08-02T11:24:51;1999.90;;;999.90;;
17133;SDS011;8682;52.120;5.252;2022-08-02T11:27:19;1999.90;;;999.90;;
17133;SDS011;8682;52.120;5.252;2022-08-02T11:29:46;1999.90;;;999.90;;
17133;SDS011;8682;52.120;5.252;2022-08-02T11:32:14;1999.90;;;999.90;;
17133;SDS011;8682;52.120;5.252;2022-08-02T11:34:43;1999.90;;;999.90;;
17133;SDS011;8682;52.120;5.252;2022-08-02T11:37:11;1999.90;;;999.90;;
17133;SDS011;8682;52.120;5.252;2022-08-02T11:39:39;1999.90;;;999.90;;
17133;SDS011;8682;52.120;5.252;2022-08-02T11:42:16;1999.90;;;999.90;;
17133;SDS011;8682;52.120;5.252;2022-08-02T11:44:43;1999.90;;;999.90;;
17133;SDS011;8682;52.120;5.252;2022-08-02T11:47:13;1999.90;;;999.90;;
17133;SDS011;8682;52.120;5.252;2022-08-02T11:49:40;1999.90;;;999.90;;
17133;SDS011;8682;52.120;5.252;2022-08-02T11:52:08;1999.90;;;999.90;;
17133;SDS011;8682;52.120;5.252;2022-08-02T11:54:36;1999.90;;;999.90;;
17133;SDS011;8682;52.120;5.252;2022-08-02T11:57:12;1999.90;;;999.90;;
17133;SDS011;8682;52.120;5.252;2022-08-02T11:59:40;1999.90;;;999.90;;
17133;SDS011;8682;52.120;5.252;2022-08-02T12:02:08;1999.90;;;999.90;;
17133;SDS011;8682;52.120;5.252;2022-08-02T12:04:36;1999.90;;;999.90;;
17133;SDS011;8682;52.120;5.252;2022-08-02T12:07:04;1999.90;;;999.90;;
17133;SDS011;8682;52.120;5.252;2022-08-02T12:09:32;1999.90;;;999.90;;
17133;SDS011;8682;52.120;5.252;2022-08-02T12:12:00;1999.90;;;999.90;;
17133;SDS011;8682;52.120;5.252;2022-08-02T12:14:30;1999.90;;;999.90;;
17133;SDS011;8682;52.120;5.252;2022-08-02T12:16:57;1999.90;;;999.90;;
17133;SDS011;8682;52.120;5.252;2022-08-02T12:19:43;1999.90;;;999.90;;
17133;SDS011;8682;52.120;5.252;2022-08-02T12:22:13;1999.90;;;999.90;;
17133;SDS011;8682;52.120;5.252;2022-08-02T12:24:41;1999.90;;;999.90;;
17133;SDS011;8682;52.120;5.252;2022-08-02T12:27:09;1999.90;;;999.90;;
17133;SDS011;8682;52.120;5.252;2022-08-02T12:29:39;1999.90;;;832.20;;
17133;SDS011;8682;52.120;5.252;2022-08-02T12:32:07;1999.90;;;999.90;;
17133;SDS011;8682;52.120;5.252;2022-08-02T12:34:34;1999.90;;;999.90;;
17133;SDS011;8682;52.120;5.252;2022-08-02T12:37:03;1999.90;;;999.90;;
17133;SDS011;8682;52.120;5.252;2022-08-02T12:39:38;1999.90;;;657.80;;
17133;SDS011;8682;52.120;5.252;2022-08-02T12:42:06;1999.90;;;349.83;;
17133;SDS011;8682;52.120;5.252;2022-08-02T12:44:34;1976.97;;;297.33;;
17133;SDS011;8682;52.120;5.252;2022-08-02T12:47:04;1999.90;;;999.90;;
17133;SDS011;8682;52.120;5.252;2022-08-02T12:49:31;1999.90;;;999.90;;
17133;SDS011;8682;52.120;5.252;2022-08-02T12:51:59;1999.90;;;999.90;;
17133;SDS011;8682;52.120;5.252;2022-08-02T12:54:26;1999.90;;;999.90;;
17133;SDS011;8682;52.120;5.252;2022-08-02T12:56:54;1999.90;;;999.90;;
17133;SDS011;8682;52.120;5.252;2022-08-02T12:59:34;1999.90;;;999.90;;
17133;SDS011;8682;52.120;5.252;2022-08-02T13:02:02;1999.90;;;543.22;;
17133;SDS011;8682;52.120;5.252;2022-08-02T13:04:31;1999.90;;;999.90;;
17133;SDS011;8682;52.120;5.252;2022-08-02T13:06:58;1999.90;;;584.63;;
17133;SDS011;8682;52.120;5.252;2022-08-02T13:09:25;1999.90;;;999.90;;
17133;SDS011;8682;52.120;5.252;2022-08-02T13:11:52;1952.07;;;807.30;;
17133;SDS011;8682;52.120;5.252;2022-08-02T13:14:19;1999.90;;;999.90;;
17133;SDS011;8682;52.120;5.252;2022-08-02T13:16:46;1999.90;;;999.90;;
17133;SDS011;8682;52.120;5.252;2022-08-02T13:19:14;1999.90;;;999.90;;
17133;SDS011;8682;52.120;5.252;2022-08-02T13:21:43;1999.90;;;999.90;;
17133;SDS011;8682;52.120;5.252;2022-08-02T13:24:12;1999.90;;;999.90;;
17133;SDS011;8682;52.120;5.252;2022-08-02T13:26:40;1999.90;;;999.90;;
17133;SDS011;8682;52.120;5.252;2022-08-02T13:29:08;1999.90;;;999.90;;
17133;SDS011;8682;52.120;5.252;2022-08-02T13:31:35;1999.90;;;999.90;;
17133;SDS011;8682;52.120;5.252;2022-08-02T13:34:03;1999.90;;;718.85;;
17133;SDS011;8682;52.120;5.252;2022-08-02T13:36:30;1912.35;;;808.08;;
17133;SDS011;8682;52.120;5.252;2022-08-02T13:38:59;1999.90;;;744.60;;
17133;SDS011;8682;52.120;5.252;2022-08-02T13:41:26;1999.90;;;999.90;;
17133;SDS011;8682;52.120;5.252;2022-08-02T13:43:53;1999.90;;;890.70;;
17133;SDS011;8682;52.120;5.252;2022-08-02T13:46:20;1464.28;;;556.53;;
17133;SDS011;8682;52.120;5.252;2022-08-02T13:48:47;1564.03;;;565.80;;
17133;SDS011;8682;52.120;5.252;2022-08-02T13:51:14;1760.30;;;787.88;;
17133;SDS011;8682;52.120;5.252;2022-08-02T13:53:42;1999.90;;;646.80;;
17133;SDS011;8682;52.120;5.252;2022-08-02T13:56:10;1999.90;;;650.75;;
17133;SDS011;8682;52.120;5.252;2022-08-02T13:58:37;1999.90;;;999.90;;
17133;SDS011;8682;52.120;5.252;2022-08-02T14:01:04;1999.90;;;999.90;;
17133;SDS011;8682;52.120;5.252;2022-08-02T14:03:31;1999.90;;;955.65;;
17133;SDS011;8682;52.120;5.252;2022-08-02T14:05:58;1999.90;;;999.90;;
17133;SDS011;8682;52.120;5.252;2022-08-02T14:08:26;1999.90;;;999.90;;
17133;SDS011;8682;52.120;5.252;2022-08-02T14:10:53;1999.90;;;999.90;;
17133;SDS011;8682;52.120;5.252;2022-08-02T14:13:21;1999.90;;;999.90;;
17133;SDS011;8682;52.120;5.252;2022-08-02T14:15:48;1999.90;;;999.90;;
17133;SDS011;8682;52.120;5.252;2022-08-02T14:18:15;1999.90;;;999.90;;
17133;SDS011;8682;52.120;5.252;2022-08-02T14:20:43;1999.90;;;999.90;;